sensor_id;sensor_type;location;lat;lon;timestamp;pressure;altitude;pressure_sealevel;temperature;humidity
55291;BME280;41155;39.768;2.712;2024-03-02T00:02:24;100860.91;;;9.38;65.94
55291;BME280;41155;39.768;2.712;2024-03-02T00:04:51;100859.34;;;9.42;66.10
55291;BME280;41155;39.768;2.712;2024-03-02T00:07:17;100856.66;;;9.42;65.43
55291;BME280;41155;39.768;2.712;2024-03-02T00:09:43;100863.81;;;9.37;66.05
55291;BME280;41155;39.768;2.712;2024-03-02T00:12:11;100872.72;;;9.49;66.17
55291;BME280;41155;39.768;2.712;2024-03-02T00:14:41;100883.34;;;9.56;66.07
55291;BME280;41155;39.768;2.712;2024-03-02T00:17:26;100866.88;;;9.40;64.92
55291;BME280;41155;39.768;2.712;2024-03-02T00:19:51;100867.00;;;9.62;63.55
55291;BME280;41155;39.768;2.712;2024-03-02T00:22:20;100867.94;;;9.68;64.13
55291;BME280;41155;39.768;2.712;2024-03-02T00:24:46;100859.13;;;9.72;63.64
55291;BME280;41155;39.768;2.712;2024-03-02T00:27:13;100868.88;;;9.90;64.16
55291;BME280;41155;39.768;2.712;2024-03-02T00:29:40;100857.59;;;9.93;64.30
55291;BME280;41155;39.768;2.712;2024-03-02T00:32:17;100858.25;;;9.84;65.78
55291;BME280;41155;39.768;2.712;2024-03-02T00:34:42;100854.59;;;9.90;65.79
55291;BME280;41155;39.768;2.712;2024-03-02T00:37:09;100849.84;;;9.97;65.63
55291;BME280;41155;39.768;2.712;2024-03-02T00:39:34;100855.81;;;9.99;65.54
55291;BME280;41155;39.768;2.712;2024-03-02T00:42:01;100863.00;;;9.93;65.85
55291;BME280;41155;39.768;2.712;2024-03-02T00:44:26;100847.63;;;9.94;66.34
55291;BME280;41155;39.768;2.712;2024-03-02T00:46:52;100853.63;;;10.13;63.36
55291;BME280;41155;39.768;2.712;2024-03-02T00:49:22;100855.66;;;10.06;64.35
55291;BME280;41155;39.768;2.712;2024-03-02T00:51:52;100850.84;;;10.08;64.65
55291;BME280;41155;39.768;2.712;2024-03-02T00:54:22;100845.19;;;9.92;66.56
55291;BME280;41155;39.768;2.712;2024-03-02T00:56:49;100830.06;;;9.91;66.04
55291;BME280;41155;39.768;2.712;2024-03-02T00:59:15;100841.91;;;9.90;66.17
55291;BME280;41155;39.768;2.712;2024-03-02T01:01:41;100847.13;;;9.97;66.16
55291;BME280;41155;39.768;2.712;2024-03-02T01:04:07;100848.38;;;10.06;64.85
55291;BME280;41155;39.768;2.712;2024-03-02T01:06:33;100844.53;;;10.19;63.96
55291;BME280;41155;39.768;2.712;2024-03-02T01:08:59;100846.38;;;10.30;63.85
55291;BME280;41155;39.768;2.712;2024-03-02T01:11:24;100842.94;;;10.35;63.66
55291;BME280;41155;39.768;2.712;2024-03-02T01:13:50;100835.56;;;10.47;62.03
55291;BME280;41155;39.768;2.712;2024-03-02T01:16:17;100841.53;;;10.49;62.47
55291;BME280;41155;39.768;2.712;2024-03-02T01:18:42;100844.88;;;10.56;63.06
55291;BME280;41155;39.768;2.712;2024-03-02T01:21:08;100832.44;;;10.38;62.62
55291;BME280;41155;39.768;2.712;2024-03-02T01:23:33;100831.63;;;10.38;62.15
55291;BME280;41155;39.768;2.712;2024-03-02T01:25:59;100838.25;;;10.13;63.67
55291;BME280;41155;39.768;2.712;2024-03-02T01:28:25;100819.38;;;10.13;64.35
55291;BME280;41155;39.768;2.712;2024-03-02T01:30:50;100833.84;;;10.07;64.53
55291;BME280;41155;39.768;2.712;2024-03-02T01:33:17;100834.38;;;10.09;64.87
55291;BME280;41155;39.768;2.712;2024-03-02T01:35:43;100811.66;;;10.05;64.76
55291;BME280;41155;39.768;2.712;2024-03-02T01:38:09;100819.19;;;10.20;65.38
55291;BME280;41155;39.768;2.712;2024-03-02T01:40:35;100822.78;;;10.26;65.43
55291;BME280;41155;39.768;2.712;2024-03-02T01:43:01;100808.56;;;10.13;65.70
55291;BME280;41155;39.768;2.712;2024-03-02T01:45:28;100809.38;;;10.14;65.97
55291;BME280;41155;39.768;2.712;2024-03-02T01:47:53;100800.72;;;10.12;66.29
55291;BME280;41155;39.768;2.712;2024-03-02T01:50:29;100804.88;;;10.19;66.32
55291;BME280;41155;39.768;2.712;2024-03-02T01:52:55;100795.78;;;10.26;65.84
55291;BME280;41155;39.768;2.712;2024-03-02T01:55:21;100790.09;;;10.05;65.97
55291;BME280;41155;39.768;2.712;2024-03-02T01:57:48;100788.69;;;10.03;66.57
55291;BME280;41155;39.768;2.712;2024-03-02T02:00:14;100793.78;;;10.16;67.07
55291;BME280;41155;39.768;2.712;2024-03-02T02:02:40;100783.22;;;10.14;66.95
55291;BME280;41155;39.768;2.712;2024-03-02T02:05:06;100789.50;;;10.03;66.41
55291;BME280;41155;39.768;2.712;2024-03-02T02:07:32;100791.41;;;10.03;66.90
55291;BME280;41155;39.768;2.712;2024-03-02T02:09:58;100767.28;;;9.79;67.31
55291;BME280;41155;39.768;2.712;2024-03-02T02:12:24;100777.59;;;9.99;66.97
55291;BME280;41155;39.768;2.712;2024-03-02T02:14:49;100782.72;;;10.01;67.23
55291;BME280;41155;39.768;2.712;2024-03-02T02:17:18;100765.63;;;10.12;67.29
55291;BME280;41155;39.768;2.712;2024-03-02T02:19:44;100771.94;;;10.01;66.84
55291;BME280;41155;39.768;2.712;2024-03-02T02:22:10;100756.16;;;9.59;68.17
55291;BME280;41155;39.768;2.712;2024-03-02T02:24:35;100766.44;;;9.62;68.45
55291;BME280;41155;39.768;2.712;2024-03-02T02:27:01;100739.47;;;9.45;68.58
55291;BME280;41155;39.768;2.712;2024-03-02T02:29:27;100742.91;;;9.57;68.06
55291;BME280;41155;39.768;2.712;2024-03-02T02:31:52;100746.09;;;9.54;68.66
55291;BME280;41155;39.768;2.712;2024-03-02T02:34:18;100735.88;;;9.56;68.79
55291;BME280;41155;39.768;2.712;2024-03-02T02:36:43;100736.13;;;9.71;68.68
55291;BME280;41155;39.768;2.712;2024-03-02T02:39:12;100733.78;;;9.75;68.68
55291;BME280;41155;39.768;2.712;2024-03-02T02:41:39;100737.38;;;9.81;68.64
55291;BME280;41155;39.768;2.712;2024-03-02T02:44:04;100721.63;;;9.72;68.70
55291;BME280;41155;39.768;2.712;2024-03-02T02:46:30;100741.38;;;9.61;68.89
55291;BME280;41155;39.768;2.712;2024-03-02T02:48:56;100732.31;;;9.67;69.01
55291;BME280;41155;39.768;2.712;2024-03-02T02:51:21;100737.16;;;8.91;69.97
55291;BME280;41155;39.768;2.712;2024-03-02T02:53:47;100738.38;;;8.72;71.99
55291;BME280;41155;39.768;2.712;2024-03-02T02:56:12;100720.47;;;9.06;71.72
55291;BME280;41155;39.768;2.712;2024-03-02T02:58:41;100726.13;;;9.21;70.89
55291;BME280;41155;39.768;2.712;2024-03-02T03:01:09;100698.59;;;8.62;72.40
55291;BME280;41155;39.768;2.712;2024-03-02T03:03:34;100728.16;;;8.86;72.75
55291;BME280;41155;39.768;2.712;2024-03-02T03:06:00;100717.41;;;9.02;72.48
55291;BME280;41155;39.768;2.712;2024-03-02T03:08:25;100719.06;;;9.03;72.27
55291;BME280;41155;39.768;2.712;2024-03-02T03:10:51;100718.03;;;8.93;72.86
55291;BME280;41155;39.768;2.712;2024-03-02T03:13:16;100719.09;;;8.92;73.10
55291;BME280;41155;39.768;2.712;2024-03-02T03:15:42;100715.94;;;8.95;73.29
55291;BME280;41155;39.768;2.712;2024-03-02T03:18:08;100702.94;;;8.92;72.95
55291;BME280;41155;39.768;2.712;2024-03-02T03:20:35;100707.00;;;9.06;73.51
55291;BME280;41155;39.768;2.712;2024-03-02T03:23:01;100717.13;;;9.16;73.50
55291;BME280;41155;39.768;2.712;2024-03-02T03:25:27;100715.66;;;9.25;72.95
55291;BME280;41155;39.768;2.712;2024-03-02T03:27:52;100717.16;;;9.33;72.51
55291;BME280;41155;39.768;2.712;2024-03-02T03:30:18;100706.88;;;9.30;72.38
55291;BME280;41155;39.768;2.712;2024-03-02T03:32:44;100711.78;;;9.04;72.64
55291;BME280;41155;39.768;2.712;2024-03-02T03:35:09;100706.44;;;9.21;73.04
55291;BME280;41155;39.768;2.712;2024-03-02T03:37:35;100703.59;;;9.27;72.43
55291;BME280;41155;39.768;2.712;2024-03-02T03:40:05;100698.38;;;9.21;72.38
55291;BME280;41155;39.768;2.712;2024-03-02T03:42:35;100689.81;;;8.95;72.81
55291;BME280;41155;39.768;2.712;2024-03-02T03:45:01;100695.53;;;8.99;73.40
55291;BME280;41155;39.768;2.712;2024-03-02T03:47:26;100688.13;;;8.77;73.52
55291;BME280;41155;39.768;2.712;2024-03-02T03:49:52;100701.88;;;8.93;73.67
55291;BME280;41155;39.768;2.712;2024-03-02T03:52:17;100692.50;;;8.95;73.83
55291;BME280;41155;39.768;2.712;2024-03-02T03:54:43;100691.44;;;8.96;73.22
55291;BME280;41155;39.768;2.712;2024-03-02T03:57:09;100683.91;;;8.81;72.82
55291;BME280;41155;39.768;2.712;2024-03-02T03:59:38;100693.03;;;8.80;73.86
55291;BME280;41155;39.768;2.712;2024-03-02T04:02:03;100686.69;;;8.87;73.68
55291;BME280;41155;39.768;2.712;2024-03-02T04:04:29;100682.31;;;8.97;73.98
55291;BME280;41155;39.768;2.712;2024-03-02T04:06:58;100681.44;;;9.09;73.40
55291;BME280;41155;39.768;2.712;2024-03-02T04:09:23;100684.84;;;9.04;73.05
55291;BME280;41155;39.768;2.712;2024-03-02T04:11:49;100684.09;;;8.63;73.98
55291;BME280;41155;39.768;2.712;2024-03-02T04:14:14;100685.13;;;8.74;73.93
55291;BME280;41155;39.768;2.712;2024-03-02T04:16:40;100680.38;;;8.81;73.68
55291;BME280;41155;39.768;2.712;2024-03-02T04:19:05;100697.31;;;8.93;74.13
55291;BME280;41155;39.768;2.712;2024-03-02T04:21:31;100693.63;;;8.82;73.76
55291;BME280;41155;39.768;2.712;2024-03-02T04:23:56;100686.53;;;8.93;73.61
55291;BME280;41155;39.768;2.712;2024-03-02T04:26:25;100691.22;;;8.98;73.46
55291;BME280;41155;39.768;2.712;2024-03-02T04:28:52;100693.47;;;8.89;73.40
55291;BME280;41155;39.768;2.712;2024-03-02T04:31:17;100689.81;;;8.95;72.94
55291;BME280;41155;39.768;2.712;2024-03-02T04:33:43;100679.03;;;8.95;72.94
55291;BME280;41155;39.768;2.712;2024-03-02T04:36:08;100689.66;;;9.02;72.84
55291;BME280;41155;39.768;2.712;2024-03-02T04:38:38;100687.94;;;8.96;72.86
55291;BME280;41155;39.768;2.712;2024-03-02T04:41:06;100686.47;;;9.05;72.83
55291;BME280;41155;39.768;2.712;2024-03-02T04:43:33;100691.97;;;9.10;72.94
55291;BME280;41155;39.768;2.712;2024-03-02T04:45:59;100684.38;;;8.78;72.68
55291;BME280;41155;39.768;2.712;2024-03-02T04:48:25;100696.50;;;8.93;72.52
55291;BME280;41155;39.768;2.712;2024-03-02T04:50:51;100678.88;;;9.02;72.03
55291;BME280;41155;39.768;2.712;2024-03-02T04:53:16;100691.06;;;8.76;72.19
55291;BME280;41155;39.768;2.712;2024-03-02T04:55:42;100686.81;;;8.51;74.09
55291;BME280;41155;39.768;2.712;2024-03-02T04:58:08;100674.50;;;8.55;74.29
55291;BME280;41155;39.768;2.712;2024-03-02T05:00:34;100676.00;;;8.63;74.48
55291;BME280;41155;39.768;2.712;2024-03-02T05:03:00;100650.19;;;8.50;74.66
55291;BME280;41155;39.768;2.712;2024-03-02T05:05:26;100681.00;;;8.19;75.55
55291;BME280;41155;39.768;2.712;2024-03-02T05:07:52;100653.59;;;8.34;75.83
55291;BME280;41155;39.768;2.712;2024-03-02T05:10:17;100664.50;;;8.04;76.85
55291;BME280;41155;39.768;2.712;2024-03-02T05:12:43;100678.41;;;8.12;77.83
55291;BME280;41155;39.768;2.712;2024-03-02T05:15:09;100670.31;;;8.36;78.94
55291;BME280;41155;39.768;2.712;2024-03-02T05:17:39;100664.22;;;8.52;80.81
55291;BME280;41155;39.768;2.712;2024-03-02T05:20:06;100674.38;;;8.62;81.04
55291;BME280;41155;39.768;2.712;2024-03-02T05:22:33;100676.66;;;8.70;80.65
55291;BME280;41155;39.768;2.712;2024-03-02T05:24:59;100670.69;;;8.80;79.85
55291;BME280;41155;39.768;2.712;2024-03-02T05:27:26;100672.16;;;8.88;78.96
55291;BME280;41155;39.768;2.712;2024-03-02T05:29:52;100671.50;;;8.80;78.20
55291;BME280;41155;39.768;2.712;2024-03-02T05:32:17;100667.75;;;8.81;77.91
55291;BME280;41155;39.768;2.712;2024-03-02T05:34:43;100662.88;;;8.95;77.41
55291;BME280;41155;39.768;2.712;2024-03-02T05:37:08;100662.25;;;8.76;76.75
55291;BME280;41155;39.768;2.712;2024-03-02T05:39:34;100661.50;;;8.64;77.18
55291;BME280;41155;39.768;2.712;2024-03-02T05:41:59;100638.97;;;8.53;76.76
55291;BME280;41155;39.768;2.712;2024-03-02T05:44:25;100674.84;;;8.59;77.29
55291;BME280;41155;39.768;2.712;2024-03-02T05:46:50;100670.38;;;8.65;77.47
55291;BME280;41155;39.768;2.712;2024-03-02T05:49:16;100657.03;;;8.70;77.41
55291;BME280;41155;39.768;2.712;2024-03-02T05:51:41;100651.97;;;8.73;76.69
55291;BME280;41155;39.768;2.712;2024-03-02T05:54:07;100659.56;;;8.24;77.66
55291;BME280;41155;39.768;2.712;2024-03-02T05:56:32;100661.19;;;8.37;78.34
55291;BME280;41155;39.768;2.712;2024-03-02T05:58:58;100659.66;;;8.53;78.36
55291;BME280;41155;39.768;2.712;2024-03-02T06:01:39;100646.22;;;8.41;78.40
55291;BME280;41155;39.768;2.712;2024-03-02T06:04:06;100647.88;;;8.42;78.67
55291;BME280;41155;39.768;2.712;2024-03-02T06:06:33;100638.97;;;8.42;78.22
55291;BME280;41155;39.768;2.712;2024-03-02T06:09:02;100637.16;;;8.59;79.04
55291;BME280;41155;39.768;2.712;2024-03-02T06:11:37;100646.88;;;8.60;78.28
55291;BME280;41155;39.768;2.712;2024-03-02T06:14:04;100637.25;;;8.64;77.83
55291;BME280;41155;39.768;2.712;2024-03-02T06:16:29;100621.06;;;8.47;77.92
55291;BME280;41155;39.768;2.712;2024-03-02T06:18:55;100639.69;;;8.25;78.80
55291;BME280;41155;39.768;2.712;2024-03-02T06:21:23;100619.59;;;8.28;78.66
55291;BME280;41155;39.768;2.712;2024-03-02T06:23:49;100655.66;;;8.55;77.85
55291;BME280;41155;39.768;2.712;2024-03-02T06:26:14;100655.44;;;8.57;77.88
55291;BME280;41155;39.768;2.712;2024-03-02T06:28:40;100646.50;;;8.68;78.06
55291;BME280;41155;39.768;2.712;2024-03-02T06:31:06;100644.97;;;8.72;77.58
55291;BME280;41155;39.768;2.712;2024-03-02T06:33:31;100653.56;;;8.86;77.35
55291;BME280;41155;39.768;2.712;2024-03-02T06:35:57;100652.44;;;8.99;77.04
55291;BME280;41155;39.768;2.712;2024-03-02T06:38:22;100650.06;;;8.57;76.67
55291;BME280;41155;39.768;2.712;2024-03-02T06:40:48;100658.94;;;8.57;76.86
55291;BME280;41155;39.768;2.712;2024-03-02T06:43:14;100637.50;;;8.63;76.47
55291;BME280;41155;39.768;2.712;2024-03-02T06:45:40;100654.31;;;8.70;76.44
55291;BME280;41155;39.768;2.712;2024-03-02T06:48:06;100603.63;;;8.50;76.52
55291;BME280;41155;39.768;2.712;2024-03-02T06:50:31;100671.06;;;9.00;75.82
55291;BME280;41155;39.768;2.712;2024-03-02T06:52:57;100658.63;;;8.82;75.88
55291;BME280;41155;39.768;2.712;2024-03-02T06:55:23;100586.00;;;8.30;76.51
55291;BME280;41155;39.768;2.712;2024-03-02T06:57:50;100583.09;;;8.20;76.38
55291;BME280;41155;39.768;2.712;2024-03-02T07:00:15;100601.06;;;8.43;76.79
55291;BME280;41155;39.768;2.712;2024-03-02T07:02:43;100653.91;;;8.90;76.53
55291;BME280;41155;39.768;2.712;2024-03-02T07:05:09;100652.28;;;8.89;76.60
55291;BME280;41155;39.768;2.712;2024-03-02T07:07:35;100620.50;;;8.74;76.45
55291;BME280;41155;39.768;2.712;2024-03-02T07:10:05;100628.03;;;8.89;75.89
55291;BME280;41155;39.768;2.712;2024-03-02T07:12:32;100606.63;;;8.82;74.86
55291;BME280;41155;39.768;2.712;2024-03-02T07:14:58;100627.22;;;9.05;74.87
55291;BME280;41155;39.768;2.712;2024-03-02T07:17:31;100653.31;;;9.33;74.60
55291;BME280;41155;39.768;2.712;2024-03-02T07:19:57;100645.72;;;9.30;74.62
55291;BME280;41155;39.768;2.712;2024-03-02T07:22:23;100628.81;;;9.18;74.66
55291;BME280;41155;39.768;2.712;2024-03-02T07:24:48;100653.97;;;9.40;74.77
55291;BME280;41155;39.768;2.712;2024-03-02T07:27:15;100642.84;;;9.37;74.28
55291;BME280;41155;39.768;2.712;2024-03-02T07:29:41;100640.31;;;9.30;73.88
55291;BME280;41155;39.768;2.712;2024-03-02T07:32:08;100637.22;;;9.21;74.82
55291;BME280;41155;39.768;2.712;2024-03-02T07:34:33;100643.19;;;9.23;75.59
55291;BME280;41155;39.768;2.712;2024-03-02T07:36:59;100643.81;;;9.31;75.51
55291;BME280;41155;39.768;2.712;2024-03-02T07:39:25;100647.91;;;9.33;75.51
55291;BME280;41155;39.768;2.712;2024-03-02T07:41:54;100646.84;;;9.34;75.77
55291;BME280;41155;39.768;2.712;2024-03-02T07:44:19;100635.66;;;9.42;75.47
55291;BME280;41155;39.768;2.712;2024-03-02T07:46:46;100651.19;;;9.18;75.49
55291;BME280;41155;39.768;2.712;2024-03-02T07:49:12;100647.00;;;9.27;75.85
55291;BME280;41155;39.768;2.712;2024-03-02T07:51:41;100644.97;;;9.18;75.81
55291;BME280;41155;39.768;2.712;2024-03-02T07:54:06;100639.03;;;9.33;75.75
55291;BME280;41155;39.768;2.712;2024-03-02T07:56:32;100647.84;;;9.45;75.86
55291;BME280;41155;39.768;2.712;2024-03-02T07:58:57;100642.44;;;9.62;75.90
55291;BME280;41155;39.768;2.712;2024-03-02T08:01:29;100647.72;;;9.90;75.79
55291;BME280;41155;39.768;2.712;2024-03-02T08:03:59;100655.44;;;10.04;75.05
55291;BME280;41155;39.768;2.712;2024-03-02T08:06:28;100666.06;;;10.10;74.75
55291;BME280;41155;39.768;2.712;2024-03-02T08:08:55;100670.53;;;10.22;74.29
55291;BME280;41155;39.768;2.712;2024-03-02T08:11:21;100655.06;;;10.34;74.60
55291;BME280;41155;39.768;2.712;2024-03-02T08:13:47;100666.25;;;10.43;74.50
55291;BME280;41155;39.768;2.712;2024-03-02T08:16:14;100657.63;;;10.68;74.72
55291;BME280;41155;39.768;2.712;2024-03-02T08:18:40;100656.66;;;10.79;72.88
55291;BME280;41155;39.768;2.712;2024-03-02T08:21:05;100665.38;;;11.13;72.13
55291;BME280;41155;39.768;2.712;2024-03-02T08:23:33;100651.44;;;11.59;70.53
55291;BME280;41155;39.768;2.712;2024-03-02T08:25:59;100661.75;;;11.99;67.82
55291;BME280;41155;39.768;2.712;2024-03-02T08:28:24;100648.72;;;12.49;65.40
55291;BME280;41155;39.768;2.712;2024-03-02T08:30:50;100653.75;;;13.23;63.59
55291;BME280;41155;39.768;2.712;2024-03-02T08:33:15;100663.00;;;13.89;60.34
55291;BME280;41155;39.768;2.712;2024-03-02T08:35:41;100654.88;;;15.08;57.89
55291;BME280;41155;39.768;2.712;2024-03-02T08:38:06;100648.91;;;15.75;52.90
55291;BME280;41155;39.768;2.712;2024-03-02T08:40:32;100627.34;;;16.32;49.70
55291;BME280;41155;39.768;2.712;2024-03-02T08:42:57;100653.81;;;17.58;45.03
55291;BME280;41155;39.768;2.712;2024-03-02T08:45:23;100636.13;;;17.56;45.73
55291;BME280;41155;39.768;2.712;2024-03-02T08:47:48;100650.94;;;18.93;43.67
55291;BME280;41155;39.768;2.712;2024-03-02T08:50:14;100638.00;;;18.85;42.07
55291;BME280;41155;39.768;2.712;2024-03-02T08:52:39;100637.00;;;19.71;39.51
55291;BME280;41155;39.768;2.712;2024-03-02T08:55:06;100644.13;;;20.69;39.46
55291;BME280;41155;39.768;2.712;2024-03-02T08:57:32;100634.13;;;20.64;37.36
55291;BME280;41155;39.768;2.712;2024-03-02T08:59:58;100635.13;;;21.38;37.54
55291;BME280;41155;39.768;2.712;2024-03-02T09:02:24;100630.28;;;22.29;36.23
55291;BME280;41155;39.768;2.712;2024-03-02T09:04:50;100629.94;;;23.23;34.86
55291;BME280;41155;39.768;2.712;2024-03-02T09:07:15;100600.66;;;23.64;31.54
55291;BME280;41155;39.768;2.712;2024-03-02T09:09:41;100618.84;;;24.14;32.07
55291;BME280;41155;39.768;2.712;2024-03-02T09:12:07;100625.28;;;23.94;31.27
55291;BME280;41155;39.768;2.712;2024-03-02T09:14:33;100622.84;;;24.66;31.95
55291;BME280;41155;39.768;2.712;2024-03-02T09:16:58;100615.28;;;24.13;30.52
55291;BME280;41155;39.768;2.712;2024-03-02T09:19:24;100616.44;;;23.42;32.75
55291;BME280;41155;39.768;2.712;2024-03-02T09:21:49;100619.03;;;22.85;31.67
55291;BME280;41155;39.768;2.712;2024-03-02T09:24:18;100606.13;;;23.06;32.06
55291;BME280;41155;39.768;2.712;2024-03-02T09:26:44;100609.38;;;22.78;33.77
55291;BME280;41155;39.768;2.712;2024-03-02T09:29:09;100607.38;;;21.69;33.44
55291;BME280;41155;39.768;2.712;2024-03-02T09:31:40;100616.03;;;19.97;36.69
55291;BME280;41155;39.768;2.712;2024-03-02T09:34:06;100607.56;;;18.22;37.68
55291;BME280;41155;39.768;2.712;2024-03-02T09:36:31;100594.03;;;18.17;37.14
55291;BME280;41155;39.768;2.712;2024-03-02T09:38:57;100599.09;;;17.96;38.82
55291;BME280;41155;39.768;2.712;2024-03-02T09:41:22;100589.34;;;17.76;38.62
55291;BME280;41155;39.768;2.712;2024-03-02T09:43:48;100597.13;;;17.69;38.48
55291;BME280;41155;39.768;2.712;2024-03-02T09:46:15;100586.53;;;17.35;39.14
55291;BME280;41155;39.768;2.712;2024-03-02T09:48:41;100579.22;;;17.63;40.84
55291;BME280;41155;39.768;2.712;2024-03-02T09:51:07;100595.78;;;17.39;38.95
55291;BME280;41155;39.768;2.712;2024-03-02T09:53:34;100593.56;;;16.89;38.11
55291;BME280;41155;39.768;2.712;2024-03-02T09:56:00;100606.88;;;16.72;39.22
55291;BME280;41155;39.768;2.712;2024-03-02T09:58:26;100612.47;;;16.62;39.12
55291;BME280;41155;39.768;2.712;2024-03-02T10:00:51;100585.13;;;16.48;38.66
55291;BME280;41155;39.768;2.712;2024-03-02T10:03:18;100632.66;;;16.18;39.72
55291;BME280;41155;39.768;2.712;2024-03-02T10:05:44;100623.69;;;16.17;39.85
55291;BME280;41155;39.768;2.712;2024-03-02T10:08:09;100611.03;;;16.26;39.29
55291;BME280;41155;39.768;2.712;2024-03-02T10:10:39;100573.25;;;16.20;42.12
55291;BME280;41155;39.768;2.712;2024-03-02T10:13:09;100580.38;;;16.16;39.76
55291;BME280;41155;39.768;2.712;2024-03-02T10:15:36;100565.53;;;16.27;40.51
55291;BME280;41155;39.768;2.712;2024-03-02T10:18:12;100588.44;;;16.45;37.84
55291;BME280;41155;39.768;2.712;2024-03-02T10:20:39;100577.63;;;16.59;37.62
55291;BME280;41155;39.768;2.712;2024-03-02T10:23:13;100589.13;;;16.56;37.21
55291;BME280;41155;39.768;2.712;2024-03-02T10:25:39;100579.25;;;16.60;37.75
55291;BME280;41155;39.768;2.712;2024-03-02T10:28:05;100573.53;;;16.80;38.56
55291;BME280;41155;39.768;2.712;2024-03-02T10:30:31;100546.25;;;16.80;37.19
55291;BME280;41155;39.768;2.712;2024-03-02T10:33:04;100539.19;;;16.79;37.82
55291;BME280;41155;39.768;2.712;2024-03-02T10:35:30;100562.47;;;16.90;37.87
55291;BME280;41155;39.768;2.712;2024-03-02T10:38:03;100554.06;;;16.87;37.48
55291;BME280;41155;39.768;2.712;2024-03-02T10:40:29;100553.63;;;17.12;38.01
55291;BME280;41155;39.768;2.712;2024-03-02T10:42:55;100548.41;;;17.30;38.21
55291;BME280;41155;39.768;2.712;2024-03-02T10:45:21;100582.72;;;17.50;36.19
55291;BME280;41155;39.768;2.712;2024-03-02T10:47:49;100532.66;;;17.27;35.33
55291;BME280;41155;39.768;2.712;2024-03-02T10:50:15;100543.75;;;17.16;36.35
55291;BME280;41155;39.768;2.712;2024-03-02T10:52:40;100528.78;;;17.14;35.51
55291;BME280;41155;39.768;2.712;2024-03-02T10:55:06;100517.63;;;16.97;35.73
55291;BME280;41155;39.768;2.712;2024-03-02T10:57:53;100534.66;;;17.21;35.43
55291;BME280;41155;39.768;2.712;2024-03-02T11:00:20;100526.94;;;17.42;35.74
55291;BME280;41155;39.768;2.712;2024-03-02T11:03:05;100521.19;;;17.57;36.30
55291;BME280;41155;39.768;2.712;2024-03-02T11:05:36;100502.38;;;17.70;35.07
55291;BME280;41155;39.768;2.712;2024-03-02T11:08:08;100511.88;;;17.72;36.46
55291;BME280;41155;39.768;2.712;2024-03-02T11:13:12;100510.94;;;18.18;36.06
55291;BME280;41155;39.768;2.712;2024-03-02T11:15:40;100495.59;;;18.31;36.73
55291;BME280;41155;39.768;2.712;2024-03-02T11:18:09;100495.09;;;18.43;36.36
55291;BME280;41155;39.768;2.712;2024-03-02T11:20:39;100492.59;;;18.33;35.81
55291;BME280;41155;39.768;2.712;2024-03-02T11:23:07;100480.72;;;17.73;37.10
55291;BME280;41155;39.768;2.712;2024-03-02T11:25:32;100470.50;;;18.06;36.58
55291;BME280;41155;39.768;2.712;2024-03-02T11:28:07;100479.72;;;18.33;37.42
55291;BME280;41155;39.768;2.712;2024-03-02T11:33:04;100467.38;;;18.58;37.48
55291;BME280;41155;39.768;2.712;2024-03-02T11:35:36;100470.34;;;18.70;36.72
55291;BME280;41155;39.768;2.712;2024-03-02T11:38:03;100469.81;;;18.82;37.16
55291;BME280;41155;39.768;2.712;2024-03-02T11:40:29;100477.28;;;18.90;36.32
55291;BME280;41155;39.768;2.712;2024-03-02T11:42:55;100474.59;;;18.99;36.95
55291;BME280;41155;39.768;2.712;2024-03-02T11:45:24;100474.75;;;19.03;35.93
55291;BME280;41155;39.768;2.712;2024-03-02T11:47:51;100477.22;;;18.82;36.79
55291;BME280;41155;39.768;2.712;2024-03-02T11:50:40;100440.72;;;18.64;38.04
55291;BME280;41155;39.768;2.712;2024-03-02T11:53:08;100454.56;;;18.45;38.79
55291;BME280;41155;39.768;2.712;2024-03-02T11:55:38;100414.31;;;18.14;40.07
55291;BME280;41155;39.768;2.712;2024-03-02T11:58:05;100431.78;;;18.49;38.73
55291;BME280;41155;39.768;2.712;2024-03-02T12:00:30;100437.56;;;18.25;39.07
55291;BME280;41155;39.768;2.712;2024-03-02T12:03:10;100429.06;;;18.13;39.31
55291;BME280;41155;39.768;2.712;2024-03-02T12:05:37;100436.03;;;17.55;40.04
55291;BME280;41155;39.768;2.712;2024-03-02T12:08:04;100427.56;;;17.57;39.97
55291;BME280;41155;39.768;2.712;2024-03-02T12:10:32;100461.31;;;17.33;40.49
55291;BME280;41155;39.768;2.712;2024-03-02T12:13:02;100422.09;;;17.02;40.71
55291;BME280;41155;39.768;2.712;2024-03-02T12:15:33;100399.84;;;16.94;41.28
55291;BME280;41155;39.768;2.712;2024-03-02T12:18:00;100469.38;;;17.11;42.11
55291;BME280;41155;39.768;2.712;2024-03-02T12:20:28;100396.63;;;16.60;42.51
55291;BME280;41155;39.768;2.712;2024-03-02T12:22:55;100397.13;;;16.81;42.62
55291;BME280;41155;39.768;2.712;2024-03-02T12:25:23;100409.56;;;16.87;43.32
55291;BME280;41155;39.768;2.712;2024-03-02T12:27:50;100392.19;;;17.10;42.39
55291;BME280;41155;39.768;2.712;2024-03-02T12:30:17;100411.59;;;17.36;41.69
55291;BME280;41155;39.768;2.712;2024-03-02T12:32:44;100418.34;;;17.53;41.59
55291;BME280;41155;39.768;2.712;2024-03-02T12:35:12;100396.31;;;17.49;41.89
55291;BME280;41155;39.768;2.712;2024-03-02T12:37:45;100368.94;;;17.27;42.35
55291;BME280;41155;39.768;2.712;2024-03-02T12:40:12;100358.44;;;17.34;42.31
55291;BME280;41155;39.768;2.712;2024-03-02T12:42:38;100391.38;;;17.51;42.48
55291;BME280;41155;39.768;2.712;2024-03-02T12:45:05;100384.25;;;17.64;42.53
55291;BME280;41155;39.768;2.712;2024-03-02T12:47:35;100354.53;;;17.62;41.30
55291;BME280;41155;39.768;2.712;2024-03-02T12:50:00;100391.97;;;17.48;40.50
55291;BME280;41155;39.768;2.712;2024-03-02T12:52:26;100345.06;;;17.46;41.41
55291;BME280;41155;39.768;2.712;2024-03-02T12:54:52;100357.75;;;17.65;40.89
55291;BME280;41155;39.768;2.712;2024-03-02T12:57:25;100338.84;;;17.68;41.21
55291;BME280;41155;39.768;2.712;2024-03-02T12:59:50;100345.75;;;17.52;40.99